Time;durP1;ratioP1;P1;durP2;ratioP2;P2;SDS_P1;SDS_P2;PMS_P1;PMS_P2;Temp;Humidity;BMP_temperature;BMP_pressure;BME280_temperature;BME280_humidity;BME280_pressure;Samples;Min_cycle;Max_cycle;Signal;HPM_P1;HPM_P2
2024/02/29 00:01:46;;;;;;;208.10;72.10;;;;;;;;;;107159;1253;61241;-79
2024/02/29 00:04:13;;;;;;;194.90;71.90;;;;;;;;;;106545;1254;61266;-83
2024/02/29 00:06:40;;;;;;;183.80;68.20;;;;;;;;;;107162;1251;61346;-79
2024/02/29 00:09:07;;;;;;;170.80;64.90;;;;;;;;;;106587;1251;61315;-79
2024/02/29 00:11:34;;;;;;;188.20;64.30;;;;;;;;;;106548;1251;61193;-79
2024/02/29 00:14:00;;;;;;;156.10;56.20;;;;;;;;;;107178;1254;61115;-83
2024/02/29 00:16:26;;;;;;;201.50;63.30;;;;;;;;;;107144;1252;61205;-82
2024/02/29 00:18:53;;;;;;;175.10;61.70;;;;;;;;;;107245;1254;59400;-83
2024/02/29 00:21:19;;;;;;;165.80;57.70;;;;;;;;;;107123;1251;61219;-83
2024/02/29 00:23:45;;;;;;;179.70;65.60;;;;;;;;;;107135;1251;61193;-79
2024/02/29 00:26:15;;;;;;;156.80;58.60;;;;;;;;;;106900;1251;61375;-83
2024/02/29 00:28:42;;;;;;;170.60;58.20;;;;;;;;;;107128;1256;61327;-83
2024/02/29 00:31:08;;;;;;;156.80;49.50;;;;;;;;;;107055;1251;61925;-80
2024/02/29 00:33:35;;;;;;;139.70;48.10;;;;;;;;;;109548;1251;59328;-79
2024/02/29 00:36:02;;;;;;;134.50;49.70;;;;;;;;;;109571;1251;59091;-79
2024/02/29 00:38:28;;;;;;;148.10;53.60;;;;;;;;;;109559;1251;58890;-83
2024/02/29 00:40:54;;;;;;;149.80;50.40;;;;;;;;;;109584;1251;58951;-84
2024/02/29 00:43:21;;;;;;;125.70;43.30;;;;;;;;;;109508;1251;58882;-80
2024/02/29 00:45:48;;;;;;;129.30;46.40;;;;;;;;;;109557;1251;59007;-79
2024/02/29 00:48:14;;;;;;;175.40;61.80;;;;;;;;;;108501;1251;59405;-79
2024/02/29 00:50:41;;;;;;;155.00;50.40;;;;;;;;;;106525;1251;61288;-79
2024/02/29 00:53:07;;;;;;;140.50;50.90;;;;;;;;;;106360;1257;62432;-79
2024/02/29 00:55:34;;;;;;;130.10;47.80;;;;;;;;;;106547;1254;61327;-83
2024/02/29 00:58:00;;;;;;;136.80;51.00;;;;;;;;;;106563;1251;61357;-79
2024/02/29 01:00:27;;;;;;;135.40;46.10;;;;;;;;;;106517;1254;61276;-84
2024/02/29 01:02:53;;;;;;;120.00;43.00;;;;;;;;;;107110;1256;60204;-84
2024/02/29 01:05:19;;;;;;;116.50;43.60;;;;;;;;;;107155;1251;61194;-79
2024/02/29 01:07:46;;;;;;;144.50;50.50;;;;;;;;;;108534;1251;62194;-79
2024/02/29 01:10:13;;;;;;;122.60;46.00;;;;;;;;;;109571;1251;59148;-84
2024/02/29 01:12:41;;;;;;;135.20;47.10;;;;;;;;;;109559;1251;58867;-79
2024/02/29 01:15:08;;;;;;;122.30;42.60;;;;;;;;;;107658;1255;61351;-79
2024/02/29 01:17:35;;;;;;;108.30;39.70;;;;;;;;;;106573;1251;61297;-78
2024/02/29 01:20:01;;;;;;;129.40;46.00;;;;;;;;;;106541;1254;61343;-83
2024/02/29 01:22:28;;;;;;;133.70;47.00;;;;;;;;;;107031;1257;61422;-79
2024/02/29 01:24:54;;;;;;;134.70;49.40;;;;;;;;;;107134;1251;61312;-83
2024/02/29 01:27:21;;;;;;;128.60;46.80;;;;;;;;;;107110;1254;61343;-79
2024/02/29 01:29:49;;;;;;;124.00;42.60;;;;;;;;;;107034;1254;62262;-84
2024/02/29 01:32:15;;;;;;;122.60;42.70;;;;;;;;;;107133;1256;61084;-79
2024/02/29 01:34:42;;;;;;;119.70;43.70;;;;;;;;;;107019;1256;62275;-83
2024/02/29 01:37:08;;;;;;;115.30;39.90;;;;;;;;;;107746;1254;61241;-79
2024/02/29 01:39:35;;;;;;;117.20;41.00;;;;;;;;;;107109;1251;61224;-83
2024/02/29 01:42:02;;;;;;;112.60;40.90;;;;;;;;;;107036;1256;61265;-80
2024/02/29 01:44:29;;;;;;;111.20;39.00;;;;;;;;;;107116;1255;61841;-80
2024/02/29 01:46:55;;;;;;;108.90;39.00;;;;;;;;;;107127;1256;61258;-79
2024/02/29 01:49:22;;;;;;;111.50;42.40;;;;;;;;;;106525;1251;61293;-79
2024/02/29 01:51:48;;;;;;;118.90;40.80;;;;;;;;;;106535;1256;61250;-79
2024/02/29 01:54:15;;;;;;;126.30;43.30;;;;;;;;;;107168;1251;61250;-83
2024/02/29 01:56:41;;;;;;;131.10;44.40;;;;;;;;;;106368;1253;61343;-79
2024/02/29 01:59:08;;;;;;;117.90;43.20;;;;;;;;;;106437;1253;61234;-84
2024/02/29 02:01:34;;;;;;;114.90;40.80;;;;;;;;;;107038;1253;61283;-83
2024/02/29 02:04:00;;;;;;;127.10;41.70;;;;;;;;;;107079;1253;61317;-84
2024/02/29 02:06:27;;;;;;;127.90;44.30;;;;;;;;;;106915;1253;61253;-79
2024/02/29 02:08:53;;;;;;;125.60;43.60;;;;;;;;;;106951;1254;61321;-83
2024/02/29 02:11:20;;;;;;;128.90;42.20;;;;;;;;;;107102;1256;61209;-79
2024/02/29 02:13:46;;;;;;;129.00;41.30;;;;;;;;;;106981;1254;61292;-83
2024/02/29 02:16:13;;;;;;;118.80;39.00;;;;;;;;;;107007;1257;61332;-83
2024/02/29 02:18:39;;;;;;;132.60;44.60;;;;;;;;;;107103;1253;61257;-79
2024/02/29 02:21:06;;;;;;;111.80;38.90;;;;;;;;;;106928;1258;61265;-83
2024/02/29 02:23:32;;;;;;;133.80;43.30;;;;;;;;;;107039;1253;62358;-79
2024/02/29 02:26:00;;;;;;;128.60;41.90;;;;;;;;;;106947;1257;61349;-79
2024/02/29 02:28:27;;;;;;;112.20;38.80;;;;;;;;;;109410;1257;58950;-79
2024/02/29 02:30:53;;;;;;;107.00;37.90;;;;;;;;;;109476;1252;59215;-81
2024/02/29 02:33:20;;;;;;;111.40;39.30;;;;;;;;;;109141;1252;61897;-83
2024/02/29 02:35:47;;;;;;;117.10;38.10;;;;;;;;;;107067;1253;61274;-79
2024/02/29 02:38:13;;;;;;;126.60;40.00;;;;;;;;;;107022;1252;61153;-83
2024/02/29 02:40:40;;;;;;;120.60;39.50;;;;;;;;;;106962;1253;60718;-79
2024/02/29 02:43:06;;;;;;;123.20;41.70;;;;;;;;;;106488;1253;61205;-79
2024/02/29 02:45:33;;;;;;;117.70;39.60;;;;;;;;;;106397;1254;61269;-83
2024/02/29 02:47:59;;;;;;;113.10;35.00;;;;;;;;;;107082;1253;61152;-82
2024/02/29 02:50:25;;;;;;;114.50;37.10;;;;;;;;;;106974;1252;62386;-83
2024/02/29 02:52:52;;;;;;;111.00;37.60;;;;;;;;;;107084;1251;61277;-83
2024/02/29 02:55:18;;;;;;;115.20;38.70;;;;;;;;;;106965;1254;61295;-83
2024/02/29 02:57:45;;;;;;;109.60;36.90;;;;;;;;;;107083;1255;61320;-83
2024/02/29 03:00:12;;;;;;;109.80;39.90;;;;;;;;;;107169;1256;61234;-83
2024/02/29 03:02:39;;;;;;;120.50;38.50;;;;;;;;;;107139;1256;61273;-83
2024/02/29 03:05:06;;;;;;;110.70;40.50;;;;;;;;;;107108;1256;61285;-79
2024/02/29 03:07:33;;;;;;;101.50;39.50;;;;;;;;;;106512;1252;61173;-83
2024/02/29 03:09:59;;;;;;;108.50;39.90;;;;;;;;;;109557;1251;62194;-84
2024/02/29 03:12:26;;;;;;;120.40;43.70;;;;;;;;;;109565;1251;58879;-84
2024/02/29 03:14:52;;;;;;;117.60;36.50;;;;;;;;;;109541;1252;58947;-79
2024/02/29 03:17:19;;;;;;;118.00;40.80;;;;;;;;;;109590;1251;59273;-84
2024/02/29 03:19:45;;;;;;;117.70;41.30;;;;;;;;;;109502;1254;58939;-83
2024/02/29 03:22:11;;;;;;;116.30;39.40;;;;;;;;;;109556;1251;59161;-83
2024/02/29 03:24:39;;;;;;;101.90;34.70;;;;;;;;;;109549;1251;59049;-81
2024/02/29 03:27:05;;;;;;;109.70;37.20;;;;;;;;;;109476;1251;60235;-80
2024/02/29 03:29:32;;;;;;;108.50;38.60;;;;;;;;;;107951;1255;61244;-84
2024/02/29 03:31:59;;;;;;;99.60;36.90;;;;;;;;;;107175;1251;61255;-79
2024/02/29 03:34:25;;;;;;;98.10;34.60;;;;;;;;;;106532;1254;61925;-83
2024/02/29 03:36:52;;;;;;;87.80;33.60;;;;;;;;;;107211;1252;61288;-79
2024/02/29 03:39:18;;;;;;;92.60;32.70;;;;;;;;;;107109;1256;61330;-79
2024/02/29 03:41:45;;;;;;;95.20;34.20;;;;;;;;;;107164;1252;61218;-79
2024/02/29 03:44:11;;;;;;;97.30;33.20;;;;;;;;;;106562;1254;61085;-83
2024/02/29 03:46:38;;;;;;;97.70;33.40;;;;;;;;;;106591;1254;59671;-79
2024/02/29 03:49:04;;;;;;;96.80;36.40;;;;;;;;;;106533;1254;61332;-79
2024/02/29 03:51:30;;;;;;;87.60;31.60;;;;;;;;;;106517;1254;61365;-79
2024/02/29 03:53:57;;;;;;;83.00;32.10;;;;;;;;;;107137;1254;61253;-83
2024/02/29 03:56:23;;;;;;;101.90;34.50;;;;;;;;;;106877;1254;61362;-82
2024/02/29 03:58:50;;;;;;;96.40;33.10;;;;;;;;;;107104;1254;61391;-83
2024/02/29 04:01:16;;;;;;;107.00;40.90;;;;;;;;;;107024;1253;61242;-79
2024/02/29 04:03:44;;;;;;;122.60;48.00;;;;;;;;;;106974;1258;61387;-83
2024/02/29 04:06:10;;;;;;;91.20;39.60;;;;;;;;;;107093;1253;61364;-79
2024/02/29 04:08:37;;;;;;;100.10;37.00;;;;;;;;;;107146;1253;61247;-84
2024/02/29 04:11:04;;;;;;;94.50;36.50;;;;;;;;;;107123;1254;61353;-84
2024/02/29 04:13:30;;;;;;;106.20;38.80;;;;;;;;;;107080;1253;61243;-84
2024/02/29 04:15:56;;;;;;;105.80;37.40;;;;;;;;;;107017;1253;61327;-84
2024/02/29 04:18:23;;;;;;;94.00;34.90;;;;;;;;;;106998;1253;61064;-79
2024/02/29 04:20:50;;;;;;;105.00;40.90;;;;;;;;;;107630;1253;61195;-80
2024/02/29 04:23:17;;;;;;;100.80;35.00;;;;;;;;;;107361;1256;61966;-80
2024/02/29 04:25:45;;;;;;;124.50;46.00;;;;;;;;;;107262;1254;61240;-79
2024/02/29 04:28:14;;;;;;;102.50;37.00;;;;;;;;;;106956;1254;60966;-80
2024/02/29 04:30:40;;;;;;;;;;;;;;;;;;107058;1253;61097;-84
2024/02/29 04:33:06;;;;;;;85.30;31.00;;;;;;;;;;107049;1253;61298;-84
2024/02/29 04:35:33;;;;;;;90.60;31.70;;;;;;;;;;107045;1256;61218;-83
2024/02/29 04:38:00;;;;;;;85.20;31.50;;;;;;;;;;107095;1257;61282;-79
2024/02/29 04:40:26;;;;;;;93.90;38.00;;;;;;;;;;107019;1256;61451;-84
2024/02/29 04:42:53;;;;;;;92.00;37.60;;;;;;;;;;107038;1253;61335;-83
2024/02/29 04:45:21;;;;;;;103.70;36.00;;;;;;;;;;107047;1256;61577;-79
2024/02/29 04:47:49;;;;;;;99.10;38.20;;;;;;;;;;106957;1253;62123;-79
2024/02/29 04:50:15;;;;;;;92.20;36.70;;;;;;;;;;107218;1254;61262;-79
2024/02/29 04:52:42;;;;;;;90.80;35.60;;;;;;;;;;107042;1254;61233;-83
2024/02/29 04:55:08;;;;;;;96.00;36.40;;;;;;;;;;106959;1254;61439;-83
2024/02/29 04:57:36;;;;;;;92.30;36.40;;;;;;;;;;107127;1253;61197;-84
2024/02/29 05:00:03;;;;;;;80.70;36.40;;;;;;;;;;107213;1251;62010;-79
2024/02/29 05:02:29;;;;;;;94.80;37.90;;;;;;;;;;106497;1257;61315;-80
2024/02/29 05:04:56;;;;;;;104.50;42.50;;;;;;;;;;106537;1254;61330;-83
2024/02/29 05:07:22;;;;;;;117.40;47.30;;;;;;;;;;107134;1255;61230;-84
2024/02/29 05:09:49;;;;;;;94.90;40.60;;;;;;;;;;107188;1256;61237;-83
2024/02/29 05:12:15;;;;;;;105.80;43.20;;;;;;;;;;107175;1254;61086;-84
2024/02/29 05:14:41;;;;;;;92.90;45.20;;;;;;;;;;107223;1254;61257;-83
2024/02/29 05:17:08;;;;;;;90.90;43.30;;;;;;;;;;107126;1256;61310;-83
2024/02/29 05:19:37;;;;;;;100.70;42.70;;;;;;;;;;107148;1254;61338;-79
2024/02/29 05:22:04;;;;;;;95.80;44.10;;;;;;;;;;106454;1252;61067;-84
2024/02/29 05:24:30;;;;;;;88.00;40.40;;;;;;;;;;107158;1252;61244;-83
2024/02/29 05:26:56;;;;;;;90.30;40.90;;;;;;;;;;107119;1255;61308;-83
2024/02/29 05:29:23;;;;;;;85.00;41.10;;;;;;;;;;107177;1255;61226;-84
2024/02/29 05:31:52;;;;;;;94.60;45.70;;;;;;;;;;107173;1254;61103;-83
2024/02/29 05:34:20;;;;;;;;;;;;;;;;;;107489;1251;61234;-79
2024/02/29 05:36:47;;;;;;;83.90;38.80;;;;;;;;;;108754;1251;61167;-79
2024/02/29 05:39:14;;;;;;;88.00;40.80;;;;;;;;;;107885;1251;61177;-83
2024/02/29 05:41:40;;;;;;;90.60;42.90;;;;;;;;;;109535;1254;58964;-78
2024/02/29 05:44:08;;;;;;;87.50;40.80;;;;;;;;;;109533;1251;58895;-79
2024/02/29 05:46:35;;;;;;;87.10;39.60;;;;;;;;;;107683;1252;221215;-80
2024/02/29 05:49:02;;;;;;;151.10;78.20;;;;;;;;;;106607;1257;61900;-79
2024/02/29 05:51:28;;;;;;;134.40;66.80;;;;;;;;;;106389;1251;61330;-79
2024/02/29 05:53:55;;;;;;;106.80;51.30;;;;;;;;;;106460;1254;61316;-83
2024/02/29 05:56:22;;;;;;;90.80;43.90;;;;;;;;;;107024;1254;61253;-80
2024/02/29 05:58:48;;;;;;;94.40;44.40;;;;;;;;;;106422;1254;61343;-83
2024/02/29 06:01:14;;;;;;;94.80;42.80;;;;;;;;;;107046;1252;61318;-83
2024/02/29 06:03:41;;;;;;;85.20;40.30;;;;;;;;;;107008;1256;62220;-79
2024/02/29 06:06:10;;;;;;;100.90;43.70;;;;;;;;;;106568;1254;61224;-79
2024/02/29 06:08:37;;;;;;;102.30;44.00;;;;;;;;;;106737;1251;61116;-84
2024/02/29 06:11:04;;;;;;;86.20;43.30;;;;;;;;;;108665;1254;58850;-79
2024/02/29 06:13:31;;;;;;;90.20;45.70;;;;;;;;;;107317;1254;61144;-83
2024/02/29 06:15:59;;;;;;;80.90;41.20;;;;;;;;;;107252;1256;61292;-84
2024/02/29 06:18:26;;;;;;;89.60;42.90;;;;;;;;;;107124;1256;61039;-78
2024/02/29 06:20:53;;;;;;;92.20;43.50;;;;;;;;;;106421;1251;61394;-84
2024/02/29 06:23:19;;;;;;;82.20;44.50;;;;;;;;;;107045;1253;61090;-84
2024/02/29 06:25:48;;;;;;;85.10;41.10;;;;;;;;;;107134;1255;61147;-81
2024/02/29 06:28:14;;;;;;;86.10;43.30;;;;;;;;;;107229;1252;61359;-79
2024/02/29 06:30:41;;;;;;;89.90;46.80;;;;;;;;;;106965;1254;62170;-84
2024/02/29 06:33:07;;;;;;;91.70;41.20;;;;;;;;;;107197;1254;61688;-79
2024/02/29 06:35:33;;;;;;;69.80;33.80;;;;;;;;;;107170;1256;61407;-79
2024/02/29 06:38:00;;;;;;;73.70;39.60;;;;;;;;;;106613;1264;61324;-79
2024/02/29 06:40:27;;;;;;;74.90;37.20;;;;;;;;;;107197;1254;61328;-80
2024/02/29 06:42:53;;;;;;;77.60;41.00;;;;;;;;;;107267;1251;59668;-80
2024/02/29 06:45:20;;;;;;;67.30;37.50;;;;;;;;;;107280;1256;61288;-79
2024/02/29 06:47:46;;;;;;;59.90;32.20;;;;;;;;;;106559;1256;59154;-79
2024/02/29 06:50:13;;;;;;;61.20;31.00;;;;;;;;;;106561;1264;61183;-79
2024/02/29 06:52:39;;;;;;;66.70;36.50;;;;;;;;;;107207;1257;61313;-80
2024/02/29 06:55:09;;;;;;;56.10;29.90;;;;;;;;;;107016;1258;61278;-79
2024/02/29 06:57:35;;;;;;;66.80;33.30;;;;;;;;;;107288;1256;61348;-80
2024/02/29 07:00:02;;;;;;;68.20;36.50;;;;;;;;;;107138;1251;60244;-84
2024/02/29 07:02:29;;;;;;;83.10;46.90;;;;;;;;;;107167;1255;61592;-84
2024/02/29 07:04:55;;;;;;;73.40;44.20;;;;;;;;;;107218;1251;61227;-83
2024/02/29 07:07:22;;;;;;;66.60;36.30;;;;;;;;;;107396;1257;59284;-80
2024/02/29 07:09:48;;;;;;;57.80;31.90;;;;;;;;;;107377;1256;61265;-84
2024/02/29 07:12:15;;;;;;;53.90;30.40;;;;;;;;;;107597;1257;61312;-84
2024/02/29 07:14:41;;;;;;;52.40;29.70;;;;;;;;;;107885;1255;61324;-80
2024/02/29 07:17:08;;;;;;;41.90;23.70;;;;;;;;;;107626;1260;59849;-79
2024/02/29 07:19:34;;;;;;;40.10;21.90;;;;;;;;;;107599;1251;59428;-79
2024/02/29 07:22:02;;;;;;;41.90;21.20;;;;;;;;;;107307;1256;61262;-83
2024/02/29 07:24:29;;;;;;;40.90;22.10;;;;;;;;;;107488;1256;61157;-79
2024/02/29 07:26:56;;;;;;;46.60;23.00;;;;;;;;;;107371;1257;61903;-80
2024/02/29 07:29:23;;;;;;;37.60;21.10;;;;;;;;;;107320;1256;61359;-79
2024/02/29 07:31:49;;;;;;;47.80;22.10;;;;;;;;;;107226;1257;60700;-84
2024/02/29 07:34:16;;;;;;;43.20;22.10;;;;;;;;;;107434;1252;61225;-84
2024/02/29 07:36:43;;;;;;;56.60;31.60;;;;;;;;;;107364;1251;61138;-84
2024/02/29 07:39:11;;;;;;;72.60;36.70;;;;;;;;;;107146;1253;62826;-79
2024/02/29 07:41:38;;;;;;;44.30;23.30;;;;;;;;;;107221;1257;62342;-84
2024/02/29 07:44:05;;;;;;;44.80;22.40;;;;;;;;;;107171;1254;61227;-79
2024/02/29 07:46:32;;;;;;;47.90;23.80;;;;;;;;;;107226;1256;61346;-83
2024/02/29 07:48:58;;;;;;;41.80;23.20;;;;;;;;;;107305;1254;61241;-80
2024/02/29 07:51:25;;;;;;;52.00;28.60;;;;;;;;;;107413;1251;61139;-79
2024/02/29 07:53:51;;;;;;;49.10;26.40;;;;;;;;;;107438;1251;61303;-83
2024/02/29 07:56:18;;;;;;;48.50;26.50;;;;;;;;;;107263;1256;61233;-80
2024/02/29 07:58:44;;;;;;;45.50;24.40;;;;;;;;;;107209;1251;61345;-83
2024/02/29 08:01:10;;;;;;;51.10;27.50;;;;;;;;;;107285;1254;61244;-83
2024/02/29 08:03:38;;;;;;;50.10;27.10;;;;;;;;;;107355;1257;61333;-83
2024/02/29 08:06:05;;;;;;;47.40;24.80;;;;;;;;;;107300;1251;61153;-83
2024/02/29 08:08:32;;;;;;;53.70;25.30;;;;;;;;;;107293;1256;61257;-83
2024/02/29 08:10:59;;;;;;;51.80;30.50;;;;;;;;;;107411;1256;61023;-83
2024/02/29 08:13:26;;;;;;;51.60;28.00;;;;;;;;;;107455;1256;61131;-79
2024/02/29 08:15:52;;;;;;;49.40;26.30;;;;;;;;;;106528;1257;62128;-83
2024/02/29 08:18:19;;;;;;;55.60;29.20;;;;;;;;;;107551;1256;61257;-79
2024/02/29 08:20:45;;;;;;;57.10;28.90;;;;;;;;;;106660;1257;61229;-78
2024/02/29 08:23:12;;;;;;;58.70;30.90;;;;;;;;;;106756;1257;61257;-83
2024/02/29 08:25:39;;;;;;;51.70;29.90;;;;;;;;;;107589;1257;61203;-79
2024/02/29 08:28:07;;;;;;;52.80;31.00;;;;;;;;;;106774;1251;61292;-83
2024/02/29 08:30:33;;;;;;;50.20;28.70;;;;;;;;;;107324;1251;60191;-80
2024/02/29 08:33:00;;;;;;;50.20;28.30;;;;;;;;;;107490;1256;61219;-83
2024/02/29 08:35:26;;;;;;;45.60;25.30;;;;;;;;;;107597;1255;61285;-79
2024/02/29 08:37:52;;;;;;;46.80;28.70;;;;;;;;;;106826;1257;61428;-83
2024/02/29 08:40:19;;;;;;;46.90;26.50;;;;;;;;;;106587;1251;61225;-82
2024/02/29 08:42:46;;;;;;;47.30;27.10;;;;;;;;;;106853;1251;61194;-82
2024/02/29 08:45:12;;;;;;;43.90;26.30;;;;;;;;;;106640;1257;61684;-82
2024/02/29 08:47:38;;;;;;;48.00;27.70;;;;;;;;;;106669;1257;61436;-82
2024/02/29 08:50:05;;;;;;;46.80;26.00;;;;;;;;;;106530;1251;61161;-78
2024/02/29 08:52:32;;;;;;;52.40;26.90;;;;;;;;;;108281;1251;61889;-82
2024/02/29 08:54:59;;;;;;;41.80;26.30;;;;;;;;;;109429;1251;58864;-83
2024/02/29 08:57:25;;;;;;;47.60;28.60;;;;;;;;;;109431;1253;59219;-79
2024/02/29 08:59:51;;;;;;;43.70;26.30;;;;;;;;;;109478;1251;59188;-83
2024/02/29 09:02:18;;;;;;;48.50;28.40;;;;;;;;;;106867;1251;61259;-78
2024/02/29 09:04:44;;;;;;;47.70;28.10;;;;;;;;;;106559;1254;61250;-77
2024/02/29 09:07:11;;;;;;;45.90;26.70;;;;;;;;;;106780;1256;61270;-78
2024/02/29 09:09:41;;;;;;;46.50;27.70;;;;;;;;;;107859;1254;61227;-79
2024/02/29 09:12:09;;;;;;;41.20;25.40;;;;;;;;;;109503;1251;59050;-83
2024/02/29 09:14:39;;;;;;;69.60;36.90;;;;;;;;;;109444;1254;59558;-79
2024/02/29 09:17:06;;;;;;;49.40;27.30;;;;;;;;;;109481;1251;61970;-79
2024/02/29 09:19:33;;;;;;;56.20;28.10;;;;;;;;;;109369;1251;58880;-83
2024/02/29 09:22:00;;;;;;;47.10;27.40;;;;;;;;;;109408;1253;59146;-79
2024/02/29 09:24:26;;;;;;;90.30;50.10;;;;;;;;;;109414;1252;59187;-79
2024/02/29 09:26:52;;;;;;;112.80;66.80;;;;;;;;;;109405;1251;59030;-83
2024/02/29 09:29:19;;;;;;;86.90;49.90;;;;;;;;;;109530;1251;59019;-79
2024/02/29 09:31:45;;;;;;;44.00;25.00;;;;;;;;;;109456;1251;58890;-83
2024/02/29 09:34:13;;;;;;;42.50;23.50;;;;;;;;;;109475;1251;59195;-83
2024/02/29 09:36:40;;;;;;;41.10;26.00;;;;;;;;;;109514;1251;58849;-83
2024/02/29 09:39:06;;;;;;;42.90;23.90;;;;;;;;;;109435;1251;59159;-83
2024/02/29 09:41:32;;;;;;;44.80;26.90;;;;;;;;;;107643;1251;61256;-79
2024/02/29 09:43:59;;;;;;;39.00;24.70;;;;;;;;;;106637;1256;61324;-83
2024/02/29 09:46:25;;;;;;;44.20;24.30;;;;;;;;;;106490;1253;61144;-83
2024/02/29 09:48:52;;;;;;;42.00;23.80;;;;;;;;;;106959;1255;61243;-83
2024/02/29 09:51:21;;;;;;;41.30;24.80;;;;;;;;;;106852;1251;61198;-83
2024/02/29 09:53:52;;;;;;;42.10;25.40;;;;;;;;;;106913;1256;62969;-79
2024/02/29 09:56:20;;;;;;;41.70;26.20;;;;;;;;;;106820;1251;61266;-83
2024/02/29 09:58:46;;;;;;;39.40;23.90;;;;;;;;;;106530;1251;61260;-83
2024/02/29 10:01:12;;;;;;;43.10;24.80;;;;;;;;;;107091;1254;61260;-83
2024/02/29 10:03:39;;;;;;;46.60;27.80;;;;;;;;;;107375;1251;61321;-83
2024/02/29 10:06:06;;;;;;;44.30;27.00;;;;;;;;;;107069;1260;61403;-83
2024/02/29 10:08:32;;;;;;;47.60;26.90;;;;;;;;;;107209;1257;61199;-83
2024/02/29 10:10:58;;;;;;;41.20;25.60;;;;;;;;;;107170;1254;61310;-79
2024/02/29 10:13:34;;;;;;;46.50;24.80;;;;;;;;;;106607;1251;61208;-79
2024/02/29 10:16:01;;;;;;;46.10;26.50;;;;;;;;;;106580;1251;62116;-83
2024/02/29 10:18:31;;;;;;;40.40;24.00;;;;;;;;;;107272;1251;61272;-84
2024/02/29 10:20:57;;;;;;;40.50;23.80;;;;;;;;;;107508;1251;61135;-81
2024/02/29 10:23:27;;;;;;;40.40;26.10;;;;;;;;;;107461;1251;61247;-84
2024/02/29 10:25:53;;;;;;;44.90;26.30;;;;;;;;;;107390;1256;62234;-83
2024/02/29 10:28:20;;;;;;;41.60;26.60;;;;;;;;;;107256;1253;61278;-78
2024/02/29 10:30:50;;;;;;;46.00;27.00;;;;;;;;;;106658;1257;61329;-83
2024/02/29 10:33:17;;;;;;;44.30;26.90;;;;;;;;;;107374;1251;59873;-83
2024/02/29 10:35:44;;;;;;;46.60;28.50;;;;;;;;;;107387;1251;61339;-84
2024/02/29 10:38:10;;;;;;;42.30;26.60;;;;;;;;;;107396;1254;61356;-79
2024/02/29 10:40:37;;;;;;;39.30;26.50;;;;;;;;;;107365;1251;61125;-78
2024/02/29 10:43:04;;;;;;;40.80;26.20;;;;;;;;;;107185;1251;61265;-83
2024/02/29 10:45:31;;;;;;;43.40;26.80;;;;;;;;;;107263;1253;61221;-79
2024/02/29 10:48:04;;;;;;;38.50;24.30;;;;;;;;;;106570;1251;61152;-83
2024/02/29 10:50:32;;;;;;;39.00;24.00;;;;;;;;;;107432;1251;60301;-79
2024/02/29 10:53:18;;;;;;;43.70;25.60;;;;;;;;;;107368;1251;61202;-79
2024/02/29 10:55:51;;;;;;;45.80;25.70;;;;;;;;;;107274;1251;61633;-82
2024/02/29 10:58:30;;;;;;;40.30;26.10;;;;;;;;;;107448;1251;61307;-83
2024/02/29 11:00:56;;;;;;;43.70;27.00;;;;;;;;;;107661;1251;61161;-84
2024/02/29 11:03:22;;;;;;;42.10;27.00;;;;;;;;;;107848;1251;61215;-82
2024/02/29 11:05:49;;;;;;;44.50;26.70;;;;;;;;;;107623;1254;62575;-83
2024/02/29 11:08:16;;;;;;;42.20;23.20;;;;;;;;;;107826;1251;59501;-79
2024/02/29 11:10:45;;;;;;;39.30;23.70;;;;;;;;;;107935;1251;61263;-78
2024/02/29 11:13:16;;;;;;;38.00;24.10;;;;;;;;;;106747;1251;61285;-78
2024/02/29 11:15:43;;;;;;;38.20;23.80;;;;;;;;;;107536;1252;61225;-80
2024/02/29 11:18:19;;;;;;;43.90;25.90;;;;;;;;;;107474;1251;61282;-85
2024/02/29 11:20:45;;;;;;;39.10;23.70;;;;;;;;;;108139;1251;61138;-84
2024/02/29 11:23:14;;;;;;;40.80;25.00;;;;;;;;;;108437;1256;61154;-85
2024/02/29 11:25:44;;;;;;;40.90;24.50;;;;;;;;;;108159;1251;61132;-79
2024/02/29 11:28:10;;;;;;;41.20;25.70;;;;;;;;;;108044;1251;59255;-79
2024/02/29 11:30:37;;;;;;;51.90;26.20;;;;;;;;;;107828;1251;59847;-84
2024/02/29 11:33:08;;;;;;;35.20;24.50;;;;;;;;;;107499;1257;61433;-84
2024/02/29 11:35:34;;;;;;;47.20;26.70;;;;;;;;;;107598;1251;61936;-84
2024/02/29 11:38:01;;;;;;;36.60;24.30;;;;;;;;;;107287;1253;61285;-84
2024/02/29 11:40:27;;;;;;;39.20;23.90;;;;;;;;;;107391;1251;59545;-80
2024/02/29 11:42:57;;;;;;;38.10;23.30;;;;;;;;;;107589;1255;61240;-79
2024/02/29 11:45:23;;;;;;;42.30;23.30;;;;;;;;;;106630;1256;61097;-84
2024/02/29 11:47:50;;;;;;;40.60;24.30;;;;;;;;;;107165;1251;61248;-79
2024/02/29 11:50:17;;;;;;;40.10;22.20;;;;;;;;;;107352;1251;61161;-79
2024/02/29 11:52:43;;;;;;;33.80;22.40;;;;;;;;;;107394;1253;61613;-84
2024/02/29 11:55:10;;;;;;;37.00;24.10;;;;;;;;;;107361;1255;61322;-80
2024/02/29 11:57:37;;;;;;;34.40;21.70;;;;;;;;;;107181;1251;61359;-81
2024/02/29 12:00:05;;;;;;;38.50;23.60;;;;;;;;;;107224;1253;61323;-84
2024/02/29 12:02:31;;;;;;;40.10;24.30;;;;;;;;;;107440;1251;61353;-80
2024/02/29 12:04:58;;;;;;;41.90;23.50;;;;;;;;;;107355;1256;62313;-84
2024/02/29 12:07:25;;;;;;;37.70;23.10;;;;;;;;;;107279;1251;61222;-84
2024/02/29 12:09:51;;;;;;;38.80;24.30;;;;;;;;;;107372;1251;63354;-79
2024/02/29 12:12:19;;;;;;;37.90;24.50;;;;;;;;;;107564;1253;61218;-84
2024/02/29 12:14:46;;;;;;;40.80;25.10;;;;;;;;;;107377;1251;61206;-84
2024/02/29 12:17:13;;;;;;;45.10;23.50;;;;;;;;;;107294;1256;61234;-79
2024/02/29 12:19:39;;;;;;;39.80;25.00;;;;;;;;;;107204;1257;59337;-79
2024/02/29 12:22:12;;;;;;;43.80;26.60;;;;;;;;;;106838;1256;61618;-84
2024/02/29 12:24:41;;;;;;;43.90;25.20;;;;;;;;;;107616;1251;61225;-79
2024/02/29 12:27:08;;;;;;;47.70;24.60;;;;;;;;;;107577;1251;61291;-79
2024/02/29 12:29:34;;;;;;;40.60;23.80;;;;;;;;;;107376;1251;61125;-84
2024/02/29 12:32:01;;;;;;;43.40;26.30;;;;;;;;;;107427;1251;61177;-79
2024/02/29 12:34:27;;;;;;;43.00;24.20;;;;;;;;;;107475;1256;60939;-79
2024/02/29 12:36:57;;;;;;;49.10;25.60;;;;;;;;;;107411;1253;60685;-80
2024/02/29 12:39:23;;;;;;;43.90;24.10;;;;;;;;;;107417;1251;61146;-79
2024/02/29 12:41:49;;;;;;;57.90;26.40;;;;;;;;;;107467;1251;61122;-84
2024/02/29 12:44:16;;;;;;;39.50;25.60;;;;;;;;;;107336;1251;61131;-79
2024/02/29 12:46:43;;;;;;;42.60;24.10;;;;;;;;;;107300;1253;61293;-84
2024/02/29 12:49:10;;;;;;;45.00;23.10;;;;;;;;;;109395;1251;59088;-80
2024/02/29 12:51:37;;;;;;;58.70;26.40;;;;;;;;;;109490;1254;59260;-80
2024/02/29 12:54:03;;;;;;;38.40;23.00;;;;;;;;;;109431;1251;58935;-84
2024/02/29 12:56:29;;;;;;;45.00;24.30;;;;;;;;;;109470;1251;58944;-80
2024/02/29 12:58:56;;;;;;;41.60;24.00;;;;;;;;;;109442;1253;59203;-84
2024/02/29 13:01:24;;;;;;;38.40;24.90;;;;;;;;;;109498;1251;58949;-80
2024/02/29 13:03:51;;;;;;;39.90;23.10;;;;;;;;;;109380;1253;59345;-85
2024/02/29 13:06:18;;;;;;;47.10;24.60;;;;;;;;;;107348;1251;61977;-79
2024/02/29 13:08:44;;;;;;;45.60;24.60;;;;;;;;;;107279;1251;61234;-79
2024/02/29 13:11:11;;;;;;;39.50;23.20;;;;;;;;;;107241;1251;62075;-84
2024/02/29 13:13:37;;;;;;;43.50;26.00;;;;;;;;;;107494;1256;61241;-84
2024/02/29 13:16:04;;;;;;;36.00;24.40;;;;;;;;;;107174;1253;59539;-84
2024/02/29 13:18:30;;;;;;;37.00;23.70;;;;;;;;;;107360;1251;61256;-84
2024/02/29 13:20:56;;;;;;;37.90;23.00;;;;;;;;;;108581;1251;61341;-84
2024/02/29 13:23:23;;;;;;;37.30;23.00;;;;;;;;;;109483;1251;59129;-84
2024/02/29 13:25:50;;;;;;;44.70;23.50;;;;;;;;;;109568;1251;58863;-80
2024/02/29 13:28:16;;;;;;;39.10;23.10;;;;;;;;;;109452;1251;58875;-79
2024/02/29 13:30:42;;;;;;;36.10;22.60;;;;;;;;;;109486;1251;58933;-79
2024/02/29 13:33:09;;;;;;;38.50;23.10;;;;;;;;;;109502;1251;58927;-83
2024/02/29 13:35:35;;;;;;;36.20;23.40;;;;;;;;;;109462;1253;58975;-84
2024/02/29 13:38:02;;;;;;;34.60;22.20;;;;;;;;;;109325;1252;58955;-84
2024/02/29 13:40:28;;;;;;;41.00;22.90;;;;;;;;;;109464;1251;59652;-84
2024/02/29 13:42:55;;;;;;;34.40;21.50;;;;;;;;;;109498;1251;59471;-84
2024/02/29 13:45:21;;;;;;;40.50;22.60;;;;;;;;;;109508;1251;59338;-84
2024/02/29 13:47:48;;;;;;;34.40;21.80;;;;;;;;;;109502;1251;59264;-80
2024/02/29 13:50:15;;;;;;;35.30;23.50;;;;;;;;;;109305;1251;59522;-83
2024/02/29 13:52:44;;;;;;;39.80;23.40;;;;;;;;;;109444;1251;59309;-79
2024/02/29 13:55:11;;;;;;;39.30;22.90;;;;;;;;;;109339;1251;58901;-79
2024/02/29 13:57:37;;;;;;;40.20;24.40;;;;;;;;;;109528;1253;59063;-84
2024/02/29 14:00:08;;;;;;;39.40;21.90;;;;;;;;;;109434;1251;59046;-84